Time;durP1;ratioP1;P1;durP2;ratioP2;P2;SDS_P1;SDS_P2;PMS_P1;PMS_P2;Temp;Humidity;BMP_temperature;BMP_pressure;BME280_temperature;BME280_humidity;BME280_pressure;Samples;Min_cycle;Max_cycle;Signal;HPM_P1;HPM_P2
2022/10/24 00:02:25;;;;;;;2.22;2.03;;;13.80;99.90;;;;;;5019039;28;20087;-51
2022/10/24 00:04:50;;;;;;;3.33;1.98;;;13.80;99.90;;;;;;5014380;28;20229;-50
2022/10/24 00:07:16;;;;;;;5.47;1.90;;;13.80;99.90;;;;;;5017326;28;20083;-50
2022/10/24 00:09:42;;;;;;;3.58;1.98;;;13.80;99.90;;;;;;5020056;28;20381;-49
2022/10/24 00:12:08;;;;;;;3.30;1.67;;;13.80;99.90;;;;;;5021996;28;20040;-50
2022/10/24 00:14:35;;;;;;;3.47;2.50;;;13.80;99.90;;;;;;5017183;28;20037;-54
2022/10/24 00:17:00;;;;;;;2.38;1.83;;;13.80;99.90;;;;;;5027362;28;20028;-49
2022/10/24 00:19:26;;;;;;;5.22;2.00;;;13.80;99.90;;;;;;5018594;28;20026;-50
2022/10/24 00:21:51;;;;;;;5.53;2.10;;;13.80;99.90;;;;;;5019340;28;20416;-51
2022/10/24 00:24:18;;;;;;;2.42;2.17;;;13.80;99.90;;;;;;5025134;28;20041;-49
2022/10/24 00:26:43;;;;;;;4.13;2.75;;;13.80;99.90;;;;;;5019237;28;20356;-49
2022/10/24 00:29:10;;;;;;;8.77;2.10;;;13.80;99.90;;;;;;5022885;28;20511;-50
2022/10/24 00:31:35;;;;;;;3.33;2.03;;;13.80;99.90;;;;;;5019637;28;20137;-50
2022/10/24 00:34:02;;;;;;;2.75;2.42;;;13.70;99.90;;;;;;5017846;28;20116;-51
2022/10/24 00:36:28;;;;;;;4.38;2.42;;;13.70;99.90;;;;;;5019976;28;20107;-49
2022/10/24 00:38:54;;;;;;;6.13;2.70;;;13.80;99.90;;;;;;5017011;28;20040;-50
2022/10/24 00:41:26;;;;;;;14.02;2.75;;;13.80;99.90;;;;;;5021770;28;20037;-50
2022/10/24 00:44:12;;;;;;;6.55;2.47;;;13.70;99.90;;;;;;5020926;28;20037;-53
2022/10/24 00:46:38;;;;;;;3.08;2.50;;;13.70;99.90;;;;;;5015065;28;20041;-49
2022/10/24 00:49:04;;;;;;;3.45;2.10;;;13.80;99.90;;;;;;5018161;28;20124;-49
2022/10/24 00:51:32;;;;;;;8.02;2.70;;;13.70;99.90;;;;;;5018376;28;20480;-49
2022/10/24 00:54:11;;;;;;;5.82;2.72;;;13.70;99.90;;;;;;5019700;28;20114;-49
2022/10/24 00:56:45;;;;;;;4.75;2.38;;;13.70;99.90;;;;;;5021955;28;20018;-49
2022/10/24 00:59:13;;;;;;;4.32;2.30;;;13.70;99.90;;;;;;5014055;28;20427;-53
2022/10/24 01:01:41;;;;;;;3.38;2.30;;;13.60;99.90;;;;;;5023228;28;20537;-51
2022/10/24 01:04:09;;;;;;;3.85;2.50;;;13.60;99.90;;;;;;5012765;28;20408;-50
2022/10/24 01:07:00;;;;;;;4.07;2.28;;;13.60;99.90;;;;;;5010663;28;20040;-49
2022/10/24 01:09:38;;;;;;;3.55;2.33;;;13.60;99.90;;;;;;5013989;28;20244;-50
2022/10/24 01:12:28;;;;;;;3.95;1.98;;;13.60;99.90;;;;;;5016373;28;20030;-50
2022/10/24 01:15:09;;;;;;;8.95;3.13;;;13.60;99.90;;;;;;5013528;28;20026;-50
2022/10/24 01:18:13;;;;;;;4.07;2.17;;;13.60;99.90;;;;;;5018258;28;20179;-51
2022/10/24 01:20:53;;;;;;;2.45;2.10;;;13.60;99.90;;;;;;5012051;28;20045;-49
2022/10/24 01:23:45;;;;;;;4.25;2.55;;;13.60;99.90;;;;;;5013076;28;20029;-55
2022/10/24 01:26:35;;;;;;;2.90;2.20;;;13.50;99.90;;;;;;5018497;28;20511;-49
2022/10/24 01:29:07;;;;;;;5.85;2.42;;;13.50;99.90;;;;;;5016926;28;20076;-49
2022/10/24 01:31:42;;;;;;;5.97;2.47;;;13.50;99.90;;;;;;5017076;28;20112;-53
2022/10/24 01:34:15;;;;;;;8.57;2.60;;;13.50;99.90;;;;;;5015246;28;20453;-54
2022/10/24 01:36:55;;;;;;;6.85;2.75;;;13.40;99.90;;;;;;5017692;28;20033;-49
2022/10/24 01:39:24;;;;;;;2.97;2.72;;;13.40;99.90;;;;;;5009471;28;20025;-50
2022/10/24 01:41:51;;;;;;;4.82;2.63;;;13.40;99.90;;;;;;5020128;28;20029;-53
2022/10/24 01:44:26;;;;;;;4.22;2.10;;;13.40;99.90;;;;;;5021257;28;20103;-52
2022/10/24 01:46:57;;;;;;;7.30;2.60;;;13.30;99.90;;;;;;5039367;22;20052;-50
2022/10/24 01:49:28;;;;;;;5.22;2.35;;;13.30;99.90;;;;;;5019819;28;20411;-53
2022/10/24 01:51:58;;;;;;;9.07;2.83;;;13.30;99.90;;;;;;5033979;28;20411;-52
2022/10/24 01:54:23;;;;;;;4.68;2.35;;;13.30;99.90;;;;;;5013933;28;20365;-54
2022/10/24 01:56:50;;;;;;;2.85;2.05;;;13.30;99.90;;;;;;5021129;28;20108;-51
2022/10/24 01:59:27;;;;;;;2.25;1.98;;;13.30;99.90;;;;;;5020829;28;20022;-51
2022/10/24 02:01:57;;;;;;;3.45;2.30;;;13.20;99.90;;;;;;5017867;28;20072;-49
2022/10/24 02:04:25;;;;;;;4.15;2.35;;;13.20;99.90;;;;;;5015392;28;20440;-49
2022/10/24 02:06:52;;;;;;;5.80;2.00;;;13.20;99.90;;;;;;5019463;28;20033;-52
2022/10/24 02:09:19;;;;;;;7.45;2.67;;;13.10;99.90;;;;;;5015556;28;20026;-53
2022/10/24 02:11:46;;;;;;;3.20;2.28;;;13.10;99.90;;;;;;5017191;28;20036;-53
2022/10/24 02:14:18;;;;;;;5.40;2.33;;;13.10;99.90;;;;;;5011098;28;20044;-49
2022/10/24 02:16:43;;;;;;;7.60;2.20;;;13.10;99.90;;;;;;5014452;28;20026;-49
2022/10/24 02:19:11;;;;;;;4.32;2.03;;;13.00;99.90;;;;;;5019087;28;20454;-49
2022/10/24 02:21:59;;;;;;;5.53;2.33;;;13.00;99.90;;;;;;5012143;28;20021;-49
2022/10/24 02:24:32;;;;;;;2.92;2.00;;;13.00;99.90;;;;;;5018640;28;20535;-51
2022/10/24 02:27:10;;;;;;;4.95;2.97;;;13.00;99.90;;;;;;5016039;28;20040;-52
2022/10/24 02:29:39;;;;;;;6.15;2.35;;;12.90;99.90;;;;;;5024572;28;20018;-50
2022/10/24 02:32:08;;;;;;;11.02;2.65;;;12.90;99.90;;;;;;5017886;28;20524;-51
2022/10/24 02:34:35;;;;;;;4.95;2.00;;;12.90;99.90;;;;;;5025020;28;20029;-53
2022/10/24 02:37:04;;;;;;;2.50;2.30;;;12.90;99.90;;;;;;5025232;28;20029;-50
2022/10/24 02:39:31;;;;;;;2.65;1.90;;;12.90;99.90;;;;;;5018435;28;20017;-51
2022/10/24 02:41:58;;;;;;;3.97;2.22;;;12.80;99.90;;;;;;5018949;28;20022;-49
2022/10/24 02:44:27;;;;;;;3.13;2.10;;;12.80;99.90;;;;;;5022043;28;20037;-55
2022/10/24 02:46:55;;;;;;;7.68;2.60;;;12.80;99.90;;;;;;5020305;28;20026;-50
2022/10/24 02:49:21;;;;;;;5.35;2.28;;;12.80;99.90;;;;;;5027730;28;20488;-49
2022/10/24 02:51:48;;;;;;;4.22;2.50;;;12.80;99.90;;;;;;5023299;28;20108;-49
2022/10/24 02:54:14;;;;;;;3.40;1.88;;;12.80;99.90;;;;;;5011372;28;20380;-51
2022/10/24 02:56:47;;;;;;;6.78;2.33;;;12.70;99.90;;;;;;5012520;28;20033;-51
2022/10/24 02:59:13;;;;;;;7.43;2.30;;;12.80;99.90;;;;;;5027574;28;20036;-49
2022/10/24 03:01:38;;;;;;;7.15;2.10;;;12.70;99.90;;;;;;5014671;28;20569;-52
2022/10/24 03:04:04;;;;;;;6.75;2.00;;;12.70;99.90;;;;;;5012353;28;20026;-50
2022/10/24 03:06:30;;;;;;;5.10;2.10;;;12.70;99.90;;;;;;5019860;28;20037;-50
2022/10/24 03:08:55;;;;;;;6.47;2.35;;;12.70;99.90;;;;;;5021718;28;20527;-49
2022/10/24 03:11:21;;;;;;;3.17;2.30;;;12.70;99.90;;;;;;5020465;28;20025;-51
2022/10/24 03:13:46;;;;;;;3.45;2.10;;;12.70;99.90;;;;;;5020401;28;20026;-50
2022/10/24 03:16:12;;;;;;;3.90;1.80;;;12.70;99.90;;;;;;5022805;28;20025;-50
2022/10/24 03:18:37;;;;;;;4.60;2.72;;;12.60;99.90;;;;;;5019839;28;20034;-50
2022/10/24 03:21:03;;;;;;;4.85;2.13;;;12.60;99.90;;;;;;5026976;28;20101;-51
2022/10/24 03:23:29;;;;;;;3.22;1.63;;;12.60;99.90;;;;;;5025848;28;20033;-49
2022/10/24 03:25:56;;;;;;;2.70;2.05;;;12.60;99.90;;;;;;5014564;28;20026;-49
2022/10/24 03:28:22;;;;;;;5.53;2.47;;;12.50;99.90;;;;;;5038066;28;20036;-49
2022/10/24 03:30:48;;;;;;;3.30;2.05;;;12.50;99.90;;;;;;5014706;28;20487;-51
2022/10/24 03:33:14;;;;;;;2.85;2.30;;;12.50;99.90;;;;;;5012528;28;20100;-50
2022/10/24 03:35:40;;;;;;;4.82;2.72;;;12.50;99.90;;;;;;5023312;28;20033;-52
2022/10/24 03:38:07;;;;;;;3.88;2.38;;;12.50;99.90;;;;;;4998311;28;20038;-52
2022/10/24 03:40:35;;;;;;;5.97;2.67;;;12.50;99.90;;;;;;5017525;28;20396;-48
2022/10/24 03:43:01;;;;;;;4.75;1.95;;;12.50;99.90;;;;;;5011418;28;20639;-51
2022/10/24 03:45:27;;;;;;;4.30;2.92;;;12.50;99.90;;;;;;5021893;28;20032;-49
2022/10/24 03:47:52;;;;;;;2.90;2.38;;;12.50;99.90;;;;;;5021438;28;20033;-49
2022/10/24 03:50:18;;;;;;;5.72;2.65;;;12.50;99.90;;;;;;5020967;28;20029;-53
2022/10/24 03:52:43;;;;;;;7.60;2.35;;;12.40;99.90;;;;;;5016803;28;20048;-49
2022/10/24 03:55:10;;;;;;;2.88;2.13;;;12.50;99.90;;;;;;5020355;28;20033;-51
2022/10/24 03:57:35;;;;;;;3.17;2.35;;;12.40;99.90;;;;;;5020191;28;20063;-50
2022/10/24 04:00:01;;;;;;;7.63;2.50;;;12.40;99.90;;;;;;5020808;28;20033;-51
2022/10/24 04:02:26;;;;;;;8.38;2.53;;;12.40;99.90;;;;;;5014577;28;20022;-51
2022/10/24 04:04:52;;;;;;;2.72;2.13;;;12.40;99.90;;;;;;5020289;28;20033;-53
2022/10/24 04:07:17;;;;;;;7.90;2.60;;;12.40;99.90;;;;;;5019944;28;20064;-51
2022/10/24 04:09:43;;;;;;;3.22;2.58;;;12.40;99.90;;;;;;5011742;28;20026;-49
2022/10/24 04:12:09;;;;;;;3.83;2.22;;;12.40;99.90;;;;;;5015453;28;20037;-50
2022/10/24 04:14:34;;;;;;;5.43;2.63;;;12.40;99.90;;;;;;5022596;28;20025;-52
2022/10/24 04:17:00;;;;;;;6.93;2.70;;;12.40;99.90;;;;;;5020486;28;20112;-50
2022/10/24 04:19:25;;;;;;;10.10;2.78;;;12.40;99.90;;;;;;5012251;28;20017;-49
2022/10/24 04:21:51;;;;;;;5.65;2.90;;;12.40;99.90;;;;;;5022325;28;20020;-50
2022/10/24 04:24:17;;;;;;;6.43;3.17;;;12.40;99.90;;;;;;5015108;28;20120;-52
2022/10/24 04:26:43;;;;;;;5.85;2.50;;;12.40;99.90;;;;;;5019380;28;20053;-52
2022/10/24 04:29:08;;;;;;;4.68;2.50;;;12.40;99.90;;;;;;5025528;28;20312;-49
2022/10/24 04:31:34;;;;;;;5.75;2.95;;;12.40;99.90;;;;;;5011456;28;20034;-49
2022/10/24 04:33:59;;;;;;;3.10;2.30;;;12.40;99.90;;;;;;5025596;28;20037;-51
2022/10/24 04:36:25;;;;;;;6.43;2.47;;;12.40;99.90;;;;;;5012060;28;20034;-51
2022/10/24 04:38:50;;;;;;;2.95;2.65;;;12.40;99.90;;;;;;5012147;28;20061;-50
2022/10/24 04:41:16;;;;;;;9.95;2.50;;;12.40;99.90;;;;;;5019475;28;20085;-56
2022/10/24 04:43:42;;;;;;;4.38;2.85;;;12.30;99.90;;;;;;5015089;28;20037;-49
2022/10/24 04:46:07;;;;;;;5.18;2.88;;;12.30;99.90;;;;;;5018148;28;20030;-54
2022/10/24 04:48:33;;;;;;;3.75;2.40;;;12.30;99.90;;;;;;5012319;28;20473;-52
2022/10/24 04:50:59;;;;;;;4.57;2.75;;;12.30;99.90;;;;;;5018480;28;20034;-52
2022/10/24 04:53:24;;;;;;;6.22;2.42;;;12.30;99.90;;;;;;5014117;28;20091;-51
2022/10/24 04:55:50;;;;;;;4.55;2.33;;;12.30;99.90;;;;;;5017777;28;20034;-52
2022/10/24 04:58:16;;;;;;;5.95;2.65;;;12.30;99.90;;;;;;5021542;28;20446;-53
2022/10/24 05:00:45;;;;;;;4.07;2.45;;;12.30;99.90;;;;;;5017743;28;20041;-49
2022/10/24 05:03:11;;;;;;;3.78;2.75;;;12.30;99.90;;;;;;5017606;28;20629;-49
2022/10/24 05:05:37;;;;;;;7.53;2.60;;;12.20;99.90;;;;;;5018248;28;20056;-50
2022/10/24 05:08:02;;;;;;;6.78;2.40;;;12.20;99.90;;;;;;5018691;28;20104;-52
2022/10/24 05:10:28;;;;;;;5.38;2.80;;;12.30;99.90;;;;;;5012998;28;20407;-54
2022/10/24 05:12:54;;;;;;;5.68;2.88;;;12.30;99.90;;;;;;5018216;28;20030;-51
2022/10/24 05:15:20;;;;;;;4.00;2.70;;;12.20;99.90;;;;;;5022961;28;20103;-49
2022/10/24 05:17:46;;;;;;;7.65;2.95;;;12.20;99.90;;;;;;5016737;28;20021;-49
2022/10/24 05:20:11;;;;;;;4.47;2.60;;;12.20;99.90;;;;;;5022482;28;20112;-52
2022/10/24 05:22:37;;;;;;;4.20;2.75;;;12.20;99.90;;;;;;5018991;28;20274;-51
2022/10/24 05:25:04;;;;;;;4.38;2.55;;;12.20;99.90;;;;;;5020015;28;20529;-50
2022/10/24 05:27:29;;;;;;;12.35;3.28;;;12.20;99.90;;;;;;5020656;28;20042;-49
2022/10/24 05:29:55;;;;;;;3.92;2.42;;;12.20;99.90;;;;;;5015720;28;20049;-53
2022/10/24 05:32:22;;;;;;;4.22;2.40;;;12.20;99.90;;;;;;5013623;28;20027;-49
2022/10/24 05:34:48;;;;;;;5.53;3.15;;;12.20;99.90;;;;;;5013146;28;20061;-54
2022/10/24 05:37:14;;;;;;;6.55;3.20;;;12.20;99.90;;;;;;5008832;28;20057;-52
2022/10/24 05:39:40;;;;;;;7.40;2.90;;;12.20;99.90;;;;;;5017009;28;20057;-49
2022/10/24 05:42:06;;;;;;;8.15;3.38;;;12.10;99.90;;;;;;5013464;28;20061;-52
2022/10/24 05:44:31;;;;;;;10.68;3.20;;;12.20;99.90;;;;;;5020504;28;20075;-52
2022/10/24 05:46:57;;;;;;;2.95;2.20;;;12.10;99.90;;;;;;5016049;28;20029;-51
2022/10/24 05:49:23;;;;;;;10.10;3.33;;;12.10;99.90;;;;;;4995855;28;20033;-49
2022/10/24 05:51:49;;;;;;;4.88;2.83;;;12.10;99.90;;;;;;5018462;28;20117;-49
2022/10/24 05:54:14;;;;;;;7.63;2.70;;;12.10;99.90;;;;;;5008926;28;20509;-50
2022/10/24 05:56:40;;;;;;;9.10;3.03;;;12.10;99.90;;;;;;5013430;28;20028;-50
2022/10/24 05:59:05;;;;;;;5.32;2.97;;;12.10;99.90;;;;;;5019196;28;20113;-54
2022/10/24 06:01:31;;;;;;;6.10;2.97;;;12.10;99.90;;;;;;5020991;28;20037;-50
2022/10/24 06:03:57;;;;;;;6.30;2.75;;;12.10;99.90;;;;;;5018448;28;20503;-49
2022/10/24 06:06:23;;;;;;;4.43;2.58;;;12.10;99.90;;;;;;5020877;28;20034;-49
2022/10/24 06:08:49;;;;;;;3.75;2.78;;;12.10;99.90;;;;;;5018048;28;20033;-49
2022/10/24 06:11:14;;;;;;;11.02;3.45;;;12.00;99.90;;;;;;5012759;28;20083;-50
2022/10/24 06:13:40;;;;;;;3.47;2.22;;;12.00;99.90;;;;;;5019253;28;20112;-51
2022/10/24 06:16:06;;;;;;;9.45;3.15;;;12.00;99.90;;;;;;5020152;28;20041;-49
2022/10/24 06:18:32;;;;;;;7.53;3.05;;;12.00;99.90;;;;;;5014878;28;20026;-49
2022/10/24 06:21:06;;;;;;;9.00;3.28;;;12.00;99.90;;;;;;5021669;28;20703;-52
2022/10/24 06:23:31;;;;;;;7.40;3.30;;;12.00;99.90;;;;;;5020525;28;20013;-50
2022/10/24 06:25:57;;;;;;;5.63;3.10;;;12.00;99.90;;;;;;5021244;28;20083;-53
2022/10/24 06:28:23;;;;;;;4.45;2.63;;;12.00;99.90;;;;;;5020666;28;20400;-53
2022/10/24 06:30:50;;;;;;;5.95;3.25;;;12.00;99.90;;;;;;5020024;28;20108;-54
2022/10/24 06:33:15;;;;;;;4.95;3.10;;;12.00;99.90;;;;;;5019104;28;20022;-49
2022/10/24 06:35:41;;;;;;;7.10;2.80;;;12.00;99.90;;;;;;5020619;28;20032;-54
2022/10/24 06:38:06;;;;;;;5.93;3.25;;;12.00;99.90;;;;;;5019881;28;20033;-49
2022/10/24 06:40:32;;;;;;;4.30;2.78;;;12.00;99.90;;;;;;5020668;28;20017;-50
2022/10/24 06:42:58;;;;;;;8.40;3.88;;;12.00;99.90;;;;;;5017716;28;20510;-49
2022/10/24 06:45:24;;;;;;;8.25;3.28;;;12.00;99.90;;;;;;5019739;28;20025;-49
2022/10/24 06:47:51;;;;;;;5.75;3.28;;;12.00;99.90;;;;;;5019726;28;20029;-49
2022/10/24 06:50:17;;;;;;;5.43;3.08;;;12.10;99.90;;;;;;5019698;28;20331;-49
2022/10/24 06:52:42;;;;;;;6.13;3.17;;;12.10;99.90;;;;;;5020768;28;20021;-50
2022/10/24 06:55:08;;;;;;;4.85;3.00;;;12.10;99.90;;;;;;5020001;28;20022;-50
2022/10/24 06:57:34;;;;;;;6.07;3.65;;;12.20;99.90;;;;;;5020484;28;20114;-49
2022/10/24 07:00:00;;;;;;;5.07;3.40;;;12.20;99.90;;;;;;5018286;28;20097;-53
2022/10/24 07:02:26;;;;;;;7.85;3.42;;;12.30;99.90;;;;;;5017783;28;20096;-51
2022/10/24 07:04:51;;;;;;;6.55;3.33;;;12.30;99.90;;;;;;5019444;28;20041;-51
2022/10/24 07:07:19;;;;;;;5.13;3.15;;;12.30;99.90;;;;;;5019492;28;20112;-49
2022/10/24 07:09:52;;;;;;;5.20;3.08;;;12.30;99.90;;;;;;5015487;28;20041;-49
2022/10/24 07:12:17;;;;;;;4.07;2.95;;;12.40;99.90;;;;;;5022773;28;20623;-49
2022/10/24 07:14:43;;;;;;;8.23;3.50;;;12.30;99.90;;;;;;5020954;28;20083;-51
2022/10/24 07:17:08;;;;;;;7.63;3.50;;;12.40;99.90;;;;;;5019355;28;20048;-49
2022/10/24 07:19:34;;;;;;;4.53;3.40;;;12.40;99.90;;;;;;5023186;28;20392;-51
2022/10/24 07:22:00;;;;;;;6.93;3.20;;;12.40;99.90;;;;;;5021194;28;20061;-52
2022/10/24 07:24:25;;;;;;;8.35;3.38;;;12.40;99.90;;;;;;5019563;28;20041;-49
2022/10/24 07:26:51;;;;;;;7.47;3.47;;;12.40;99.90;;;;;;5020630;28;20025;-51
2022/10/24 07:29:16;;;;;;;6.88;3.55;;;12.40;99.90;;;;;;5025635;28;20037;-52
2022/10/24 07:31:42;;;;;;;6.13;3.25;;;12.50;99.90;;;;;;5014346;28;20088;-50
2022/10/24 07:34:08;;;;;;;7.00;3.22;;;12.50;99.90;;;;;;5027416;28;20569;-51
2022/10/24 07:36:34;;;;;;;7.07;3.67;;;12.60;99.90;;;;;;5014791;28;20030;-49
2022/10/24 07:39:00;;;;;;;5.35;3.35;;;12.60;99.90;;;;;;5027794;28;20087;-49
2022/10/24 07:41:28;;;;;;;4.20;3.38;;;12.60;99.90;;;;;;5015248;28;20034;-50
2022/10/24 07:43:56;;;;;;;4.80;3.05;;;12.60;99.90;;;;;;5020842;28;20241;-53
2022/10/24 07:46:22;;;;;;;5.70;3.60;;;12.70;99.90;;;;;;5021408;28;20036;-49
2022/10/24 07:48:51;;;;;;;6.25;3.05;;;12.70;99.90;;;;;;5048727;23;20415;-51
2022/10/24 07:51:18;;;;;;;9.68;4.18;;;12.70;99.90;;;;;;5032749;28;20025;-53
2022/10/24 07:53:44;;;;;;;8.13;3.63;;;12.80;99.90;;;;;;5035485;28;20032;-54
2022/10/24 07:56:13;;;;;;;5.28;3.22;;;12.80;99.90;;;;;;5037423;28;20025;-53
2022/10/24 07:58:39;;;;;;;8.38;3.42;;;12.80;99.90;;;;;;5027193;28;20434;-50
2022/10/24 08:01:06;;;;;;;9.52;3.33;;;12.80;99.90;;;;;;5022315;28;20034;-50
2022/10/24 08:03:32;;;;;;;7.03;3.40;;;12.90;99.90;;;;;;5019057;28;20025;-51
2022/10/24 08:05:58;;;;;;;3.60;2.92;;;13.00;99.90;;;;;;5020918;28;20043;-50
2022/10/24 08:08:24;;;;;;;5.47;3.08;;;13.00;99.90;;;;;;5021714;28;20435;-50
2022/10/24 08:10:50;;;;;;;5.93;2.95;;;13.10;99.90;;;;;;5020075;28;20097;-54
2022/10/24 08:13:16;;;;;;;6.28;3.03;;;13.10;99.90;;;;;;5022471;28;20038;-55
2022/10/24 08:15:42;;;;;;;5.35;2.90;;;13.20;99.90;;;;;;5018256;28;20380;-54
2022/10/24 08:18:07;;;;;;;7.10;3.35;;;13.20;99.90;;;;;;5021044;28;20128;-50
2022/10/24 08:20:33;;;;;;;4.78;2.88;;;13.30;99.90;;;;;;5025326;28;20104;-56
2022/10/24 08:22:58;;;;;;;6.00;3.42;;;13.40;99.90;;;;;;5021203;28;20449;-50
2022/10/24 08:25:24;;;;;;;6.10;3.50;;;13.50;99.90;;;;;;5022880;28;20496;-54
2022/10/24 08:27:49;;;;;;;4.88;2.63;;;13.60;99.90;;;;;;5019853;28;20405;-51
2022/10/24 08:30:16;;;;;;;7.45;3.13;;;13.70;99.90;;;;;;5023304;28;20026;-54
2022/10/24 08:32:42;;;;;;;6.07;2.70;;;13.80;99.90;;;;;;5021613;28;20022;-52
2022/10/24 08:35:08;;;;;;;3.85;2.63;;;13.80;99.90;;;;;;5020869;28;20042;-50
2022/10/24 08:37:36;;;;;;;5.68;2.55;;;13.90;99.90;;;;;;5021248;28;20021;-52
2022/10/24 08:40:05;;;;;;;5.78;3.08;;;13.90;99.90;;;;;;5020199;28;20033;-53
2022/10/24 08:42:32;;;;;;;3.38;2.50;;;14.00;99.90;;;;;;5020560;28;20021;-56
2022/10/24 08:44:58;;;;;;;5.45;2.15;;;14.00;99.90;;;;;;5020254;28;20119;-53
2022/10/24 08:47:48;;;;;;;4.78;3.10;;;14.10;99.90;;;;;;5021686;28;20053;-52
2022/10/24 08:50:23;;;;;;;11.40;3.55;;;14.10;99.90;;;;;;5020831;28;20040;-51
2022/10/24 08:53:08;;;;;;;5.22;2.72;;;14.20;99.90;;;;;;5021746;28;20125;-55
2022/10/24 08:55:41;;;;;;;5.78;3.00;;;14.20;99.90;;;;;;5019075;28;20033;-51
2022/10/24 08:58:14;;;;;;;9.98;3.28;;;14.30;99.90;;;;;;5019629;28;20029;-55
2022/10/24 09:00:43;;;;;;;9.27;3.05;;;14.30;99.90;;;;;;5014332;28;20104;-51
2022/10/24 09:03:25;;;;;;;6.68;2.60;;;14.30;99.90;;;;;;5018582;28;20417;-51
2022/10/24 09:05:55;;;;;;;4.30;2.33;;;14.30;99.90;;;;;;5008719;28;20033;-51
2022/10/24 09:08:53;;;;;;;6.63;2.67;;;14.40;99.90;;;;;;5018071;28;20025;-58
2022/10/24 09:11:40;;;;;;;6.35;2.33;;;14.50;99.90;;;;;;4994694;28;20033;-51
2022/10/24 09:14:18;;;;;;;5.45;2.35;;;14.50;99.90;;;;;;5020892;28;20030;-56
2022/10/24 09:16:47;;;;;;;6.53;1.95;;;14.60;99.90;;;;;;5021486;28;20018;-53
2022/10/24 09:19:18;;;;;;;7.38;2.28;;;14.60;99.90;;;;;;5019391;28;20426;-51
2022/10/24 09:21:45;;;;;;;7.40;2.33;;;14.70;99.90;;;;;;5019227;28;20225;-51
2022/10/24 09:24:25;;;;;;;5.65;2.30;;;14.70;99.90;;;;;;5018041;28;20384;-53
2022/10/24 09:26:51;;;;;;;2.95;1.30;;;14.90;99.90;;;;;;5013933;28;20152;-51
2022/10/24 09:29:17;;;;;;;3.83;1.85;;;14.90;99.90;;;;;;5022152;28;20188;-52
2022/10/24 09:31:42;;;;;;;7.22;2.10;;;15.00;99.90;;;;;;5013502;28;20125;-55
2022/10/24 09:34:09;;;;;;;3.15;1.50;;;15.00;99.90;;;;;;5024870;28;20033;-51
2022/10/24 09:36:37;;;;;;;3.38;1.95;;;15.00;99.90;;;;;;5015995;28;20018;-53
2022/10/24 09:39:30;;;;;;;4.68;1.65;;;15.10;99.90;;;;;;5019610;28;20040;-51
2022/10/24 09:41:57;;;;;;;4.05;1.90;;;15.20;99.90;;;;;;5018136;28;20380;-51
2022/10/24 09:44:30;;;;;;;4.00;1.92;;;15.20;99.90;;;;;;5021397;28;20021;-55
2022/10/24 09:46:56;;;;;;;6.45;1.98;;;15.20;99.90;;;;;;5013826;28;20018;-51
2022/10/24 09:49:30;;;;;;;4.47;1.80;;;15.30;99.90;;;;;;5020650;28;20037;-51
2022/10/24 09:52:24;;;;;;;8.80;1.83;;;15.30;99.90;;;;;;5018193;28;20144;-51
2022/10/24 09:55:21;;;;;;;7.70;1.67;;;15.40;99.90;;;;;;5012485;28;20056;-51
2022/10/24 09:57:47;;;;;;;4.70;1.60;;;15.50;99.90;;;;;;5019347;28;20256;-52
2022/10/24 10:00:23;;;;;;;2.13;1.60;;;15.60;99.90;;;;;;5010772;28;20024;-50
2022/10/24 10:03:00;;;;;;;6.10;1.52;;;15.80;99.90;;;;;;5011880;28;20018;-52
2022/10/24 10:05:29;;;;;;;10.18;1.60;;;15.90;99.90;;;;;;5014993;28;20022;-51
2022/10/24 10:07:55;;;;;;;4.60;1.73;;;16.00;99.90;;;;;;5021387;28;20042;-53
2022/10/24 10:10:25;;;;;;;8.60;1.98;;;16.10;99.90;;;;;;5021411;28;20048;-52
2022/10/24 10:13:14;;;;;;;5.25;1.55;;;16.10;99.90;;;;;;5017210;28;20393;-55
2022/10/24 10:15:47;;;;;;;5.35;2.03;;;16.20;99.90;;;;;;5008487;28;20580;-56
2022/10/24 10:18:41;;;;;;;6.93;1.75;;;16.20;99.90;;;;;;5016990;28;20286;-51
2022/10/24 10:21:13;;;;;;;8.07;2.00;;;16.30;99.90;;;;;;5018722;28;20120;-52
2022/10/24 10:23:42;;;;;;;5.20;1.95;;;16.30;99.90;;;;;;5021094;28;20500;-51
2022/10/24 10:26:26;;;;;;;2.60;1.73;;;16.40;99.90;;;;;;5017834;28;20103;-51
2022/10/24 10:28:54;;;;;;;2.78;1.58;;;16.40;99.90;;;;;;5019398;28;20036;-55
2022/10/24 10:31:45;;;;;;;5.05;2.17;;;16.50;99.90;;;;;;5019545;28;20029;-51
2022/10/24 10:34:20;;;;;;;7.85;2.17;;;16.60;99.90;;;;;;5018872;28;20041;-51
2022/10/24 10:36:58;;;;;;;3.50;1.63;;;16.60;99.90;;;;;;5014983;28;20021;-54
2022/10/24 10:39:56;;;;;;;8.45;1.77;;;16.60;99.90;;;;;;5017183;28;20191;-52
2022/10/24 10:42:30;;;;;;;5.47;1.73;;;16.70;99.90;;;;;;5015563;28;20479;-51
2022/10/24 10:45:21;;;;;;;3.22;1.33;;;16.80;99.90;;;;;;5021952;28;20515;-52
2022/10/24 10:48:06;;;;;;;6.30;2.20;;;16.90;99.90;;;;;;5024006;28;20025;-56
2022/10/24 10:50:31;;;;;;;8.82;2.38;;;16.90;99.90;;;;;;5035634;28;20475;-54
2022/10/24 10:53:20;;;;;;;5.88;2.00;;;16.90;99.90;;;;;;5022336;28;20104;-55
2022/10/24 10:56:17;;;;;;;2.90;1.52;;;16.90;99.90;;;;;;5024285;28;20018;-54
2022/10/24 10:59:22;;;;;;;7.85;1.55;;;16.90;99.90;;;;;;5020052;28;20034;-54
2022/10/24 11:01:55;;;;;;;5.63;1.60;;;16.90;99.90;;;;;;4982235;28;20047;-55
2022/10/24 11:04:46;;;;;;;9.45;1.65;;;16.90;99.90;;;;;;5010953;28;20500;-55
2022/10/24 11:07:36;;;;;;;5.40;1.77;;;17.00;99.90;;;;;;5023479;28;20026;-54
2022/10/24 11:10:09;;;;;;;5.47;1.33;;;17.00;99.90;;;;;;5017699;28;20408;-56
2022/10/24 11:12:41;;;;;;;3.72;1.55;;;16.90;99.90;;;;;;5021249;28;20096;-53
2022/10/24 11:15:19;;;;;;;3.33;1.52;;;16.90;99.90;;;;;;5017360;28;20030;-53
2022/10/24 11:18:14;;;;;;;6.05;1.38;;;16.90;99.90;;;;;;5009146;28;20025;-53
2022/10/24 11:21:10;;;;;;;4.53;1.42;;;16.80;99.90;;;;;;5005055;28;20038;-55
2022/10/24 11:24:00;;;;;;;4.85;1.80;;;16.80;99.90;;;;;;5015901;28;20032;-57
2022/10/24 11:26:53;;;;;;;6.55;1.55;;;16.80;99.90;;;;;;5012159;28;20283;-55
2022/10/24 11:29:30;;;;;;;7.82;1.83;;;16.80;99.90;;;;;;5014962;28;20509;-52
2022/10/24 11:32:01;;;;;;;7.40;1.65;;;16.80;99.90;;;;;;5020792;28;20041;-56
2022/10/24 11:34:59;;;;;;;4.22;1.13;;;16.80;99.90;;;;;;5024609;28;20032;-53
2022/10/24 11:37:37;;;;;;;16.10;1.52;;;16.80;99.90;;;;;;5011744;28;20022;-52
2022/10/24 11:40:10;;;;;;;3.83;1.35;;;16.90;99.90;;;;;;5024701;28;20113;-52
2022/10/24 11:43:04;;;;;;;2.83;1.48;;;16.90;99.90;;;;;;5023202;28;20032;-55
2022/10/24 11:45:40;;;;;;;3.75;1.63;;;17.00;99.90;;;;;;5016489;28;20040;-52
2022/10/24 11:48:21;;;;;;;3.25;1.33;;;17.00;99.90;;;;;;5024006;28;20035;-57
2022/10/24 11:51:16;;;;;;;3.67;1.25;;;17.10;99.90;;;;;;5027153;28;20063;-54
2022/10/24 11:54:24;;;;;;;3.33;1.20;;;17.10;99.90;;;;;;5017951;28;20029;-51
2022/10/24 11:57:14;;;;;;;1.63;0.98;;;17.20;99.90;;;;;;4983208;28;20107;-52
2022/10/24 11:59:40;;;;;;;3.58;1.17;;;17.10;99.90;;;;;;5023116;28;20527;-51
2022/10/24 12:02:39;;;;;;;6.07;1.10;;;17.00;99.90;;;;;;5015079;28;20104;-54
2022/10/24 12:05:33;;;;;;;4.35;1.27;;;17.10;99.90;;;;;;5020919;28;20388;-51
2022/10/24 12:08:27;;;;;;;6.53;1.42;;;17.10;99.90;;;;;;5020254;28;20049;-56
2022/10/24 12:11:08;;;;;;;4.18;1.15;;;17.20;99.90;;;;;;5017216;28;20017;-57
2022/10/24 12:14:03;;;;;;;3.35;1.15;;;17.20;99.90;;;;;;5019083;28;20032;-56
2022/10/24 12:16:40;;;;;;;4.28;1.52;;;17.20;99.90;;;;;;5008689;28;20034;-55
2022/10/24 12:19:13;;;;;;;5.45;1.35;;;17.20;99.90;;;;;;5019612;28;20026;-53
2022/10/24 12:21:45;;;;;;;3.42;1.30;;;17.30;99.90;;;;;;5015705;28;20026;-52
2022/10/24 12:24:31;;;;;;;2.58;1.13;;;17.30;99.90;;;;;;5023834;28;20108;-54
2022/10/24 12:27:01;;;;;;;2.13;1.10;;;17.30;99.90;;;;;;5013484;28;20026;-51
2022/10/24 12:29:32;;;;;;;3.58;0.90;;;17.30;99.90;;;;;;5023371;28;20029;-52
2022/10/24 12:31:58;;;;;;;3.88;1.17;;;17.30;99.90;;;;;;5013735;28;20026;-57
2022/10/24 12:34:26;;;;;;;3.22;1.25;;;17.20;99.90;;;;;;5023778;28;20041;-55
2022/10/24 12:37:11;;;;;;;1.65;1.10;;;17.30;99.90;;;;;;5013037;28;20018;-50
2022/10/24 12:39:42;;;;;;;3.83;1.10;;;17.20;99.90;;;;;;5023477;28;20605;-55
2022/10/24 12:42:18;;;;;;;4.45;1.10;;;17.20;99.90;;;;;;5016750;28;20045;-54
2022/10/24 12:44:44;;;;;;;;;;;17.10;99.90;;;;;;5018649;28;20400;-54
2022/10/24 12:47:53;;;;;;;2.53;1.48;;;17.10;99.90;;;;;;5021785;28;19913;-53
2022/10/24 12:50:22;;;;;;;5.65;1.13;;;17.10;99.90;;;;;;4955730;28;20046;-54
2022/10/24 12:52:47;;;;;;;1.90;0.93;;;17.10;99.90;;;;;;5013834;28;20113;-54
2022/10/24 12:55:45;;;;;;;3.30;1.17;;;17.10;99.90;;;;;;5016727;28;20029;-56
2022/10/24 12:58:28;;;;;;;2.97;1.35;;;17.10;99.90;;;;;;4985777;28;20038;-55
2022/10/24 13:00:57;;;;;;;2.67;1.10;;;17.20;99.90;;;;;;5015039;28;20390;-52
2022/10/24 13:03:49;;;;;;;2.53;1.02;;;17.10;99.90;;;;;;5023063;28;20033;-58
2022/10/24 13:06:29;;;;;;;3.70;1.08;;;17.10;99.90;;;;;;4978692;28;20032;-51
2022/10/24 13:09:13;;;;;;;3.50;1.13;;;17.10;99.90;;;;;;5019716;28;20729;-54
2022/10/24 13:12:21;;;;;;;2.60;0.98;;;17.10;99.90;;;;;;5018652;28;20512;-58